Time;durP1;ratioP1;P1;durP2;ratioP2;P2;SDS_P1;SDS_P2;PMS_P1;PMS_P2;Temp;Humidity;BMP_temperature;BMP_pressure;BME280_temperature;BME280_humidity;BME280_pressure;Samples;Min_cycle;Max_cycle;Signal;HPM_P1;HPM_P2
2022/05/17 07:15:47;;;;;;;;;9.25;8.50;;;;;20.61;56.32;101666.63;5056685;27;45972;-79
2022/05/17 07:18:14;;;;;;;;;7.50;7.00;;;;;20.82;55.84;101675.75;5048210;28;45541;-76
2022/05/17 07:20:40;;;;;;;;;8.00;8.00;;;;;21.10;56.51;101673.47;5048851;28;45316;-73
2022/05/17 07:23:06;;;;;;;;;8.33;7.67;;;;;21.39;56.10;101665.59;5042694;28;45554;-73
2022/05/17 07:25:33;;;;;;;;;9.00;8.67;;;;;21.76;55.17;101671.53;5041718;28;46197;-73
2022/05/17 07:27:58;;;;;;;;;13.33;9.00;;;;;22.10;54.88;101664.00;5046431;28;45506;-74
2022/05/17 07:30:24;;;;;;;;;8.33;6.67;;;;;22.46;54.44;101666.25;5048803;28;45468;-74
2022/05/17 07:32:49;;;;;;;;;13.00;8.00;;;;;22.81;54.21;101671.31;5049383;28;45327;-74
2022/05/17 07:35:15;;;;;;;;;6.67;6.67;;;;;23.14;53.19;101669.19;5049595;28;46245;-73
2022/05/17 07:37:40;;;;;;;;;10.00;7.33;;;;;23.46;53.27;101678.00;5048856;28;45370;-75
2022/05/17 07:40:07;;;;;;;;;9.33;8.00;;;;;23.74;52.40;101675.38;5049251;28;45544;-74
2022/05/17 07:42:32;;;;;;;;;7.67;6.00;;;;;24.02;52.09;101675.41;5049550;28;45456;-74
2022/05/17 07:44:58;;;;;;;;;8.00;8.00;;;;;24.25;51.59;101673.19;5042149;28;45792;-74
2022/05/17 07:47:23;;;;;;;;;7.67;7.00;;;;;24.49;51.33;101671.78;5047937;28;45513;-74
2022/05/17 07:49:48;;;;;;;;;9.67;9.00;;;;;24.70;51.00;101670.63;5048196;28;45426;-74
2022/05/17 07:52:14;;;;;;;;;8.00;8.00;;;;;24.90;50.85;101674.09;5041790;28;45748;-75
2022/05/17 07:54:41;;;;;;;;;9.00;6.00;;;;;25.09;50.18;101674.94;5046278;28;47680;-77
2022/05/17 07:57:07;;;;;;;;;7.67;7.00;;;;;25.25;48.83;101672.34;5047842;28;45569;-77
2022/05/17 07:59:33;;;;;;;;;11.00;7.67;;;;;25.41;48.51;101676.19;5039668;28;45475;-77
2022/05/17 08:01:58;;;;;;;;;8.00;7.00;;;;;25.53;48.07;101685.78;5038066;28;45509;-78
2022/05/17 08:04:23;;;;;;;;;7.00;7.00;;;;;25.62;47.68;101680.41;5042940;28;48739;-78
2022/05/17 08:06:49;;;;;;;;;8.00;7.33;;;;;25.74;47.61;101678.28;5043596;28;45557;-78
2022/05/17 08:09:15;;;;;;;;;7.00;7.00;;;;;25.81;47.08;101675.78;5043076;28;45617;-77
2022/05/17 08:11:41;;;;;;;;;6.67;6.67;;;;;25.89;47.16;101668.53;5046379;28;45625;-80
2022/05/17 08:14:06;;;;;;;;;12.00;9.33;;;;;25.97;46.82;101667.72;5049251;28;45511;-80
2022/05/17 08:16:32;;;;;;;;;10.33;8.67;;;;;26.03;46.80;101666.19;5040994;28;45561;-79
2022/05/17 08:18:57;;;;;;;;;7.67;7.67;;;;;26.08;46.45;101663.88;5045040;28;45572;-86
2022/05/17 08:21:22;;;;;;;;;11.33;9.33;;;;;26.19;46.07;101668.13;5045303;28;45643;-84
2022/05/17 08:23:47;;;;;;;;;10.67;10.67;;;;;26.24;46.36;101670.38;5039826;28;49449;-83
2022/05/17 08:28:57;;;;;;;;;7.33;7.33;;;;;26.38;45.40;101664.34;5035036;28;45435;-83
2022/05/17 08:31:23;;;;;;;;;8.00;8.00;;;;;26.49;45.27;101665.03;5034301;28;47343;-81
2022/05/17 08:33:49;;;;;;;;;8.33;8.33;;;;;26.54;45.54;101668.09;5033099;28;45368;-81
2022/05/17 08:36:14;;;;;;;;;9.67;7.33;;;;;26.58;45.15;101662.16;5032882;28;45398;-81
2022/05/17 08:38:42;;;;;;;;;8.33;8.33;;;;;26.65;45.27;101662.34;5018920;28;45485;-81
2022/05/17 08:41:31;;;;;;;;;8.00;8.00;;;;;26.73;45.12;101661.50;5032374;28;45497;-81
2022/05/17 08:44:13;;;;;;;;;7.33;7.33;;;;;26.75;44.94;101655.88;5034025;28;46245;-81
2022/05/17 08:46:59;;;;;;;;;10.00;10.00;;;;;26.83;45.25;101650.44;5032045;28;45735;-81
2022/05/17 08:49:31;;;;;;;;;8.00;8.00;;;;;26.90;45.06;101654.22;5033324;28;45413;-83
2022/05/17 08:52:02;;;;;;;;;8.67;8.33;;;;;26.93;45.13;101653.88;5030837;28;45803;-78
2022/05/17 08:54:40;;;;;;;;;9.00;9.00;;;;;26.98;44.64;101655.25;5036251;28;46972;-78
2022/05/17 08:57:26;;;;;;;;;8.00;8.00;;;;;27.02;44.19;101657.44;5029355;28;45471;-85
2022/05/17 08:59:52;;;;;;;;;7.00;7.00;;;;;27.06;44.28;101650.66;5047996;28;45571;-84
2022/05/17 09:02:33;;;;;;;;;9.67;8.33;;;;;27.10;44.29;101662.91;5034415;28;45916;-81
2022/05/17 09:05:04;;;;;;;;;7.00;6.33;;;;;27.13;44.08;101653.53;5031113;28;45575;-81
2022/05/17 09:07:46;;;;;;;;;8.67;8.33;;;;;27.14;43.65;101657.97;5033711;28;45493;-83
2022/05/17 09:10:20;;;;;;;;;8.67;8.67;;;;;27.18;44.07;101655.78;5031731;28;45419;-82
2022/05/17 09:12:52;;;;;;;;;10.00;9.00;;;;;27.23;43.42;101653.38;5030709;28;47108;-77
2022/05/17 09:15:19;;;;;;;;;9.33;7.67;;;;;27.24;43.31;101655.06;5033591;28;46305;-81
2022/05/17 09:17:45;;;;;;;;;8.33;8.33;;;;;27.25;43.65;101653.22;5028288;28;45624;-85
2022/05/17 09:20:15;;;;;;;;;10.33;6.00;;;;;27.24;43.11;101649.63;5035542;28;45372;-85
2022/05/17 09:22:41;;;;;;;;;8.33;8.00;;;;;27.25;43.76;101653.22;5031053;28;45653;-91
2022/05/17 09:25:20;;;;;;;;;12.00;8.00;;;;;27.27;43.52;101646.56;5032029;28;46189;-81
2022/05/17 09:27:49;;;;;;;;;8.33;8.33;;;;;27.30;42.81;101653.53;5018341;28;45383;-78
2022/05/17 09:30:21;;;;;;;;;7.67;7.67;;;;;27.34;43.26;101652.19;5023223;28;45403;-79
2022/05/17 09:32:47;;;;;;;;;8.33;8.33;;;;;27.35;43.03;101648.44;5024008;28;45435;-78
2022/05/17 09:35:21;;;;;;;;;8.50;8.50;;;;;27.35;42.74;101642.97;5034312;28;47251;-78
2022/05/17 09:37:57;;;;;;;;;8.33;8.33;;;;;27.35;42.82;101638.34;5019924;28;45477;-76
2022/05/17 09:40:37;;;;;;;;;11.00;11.00;;;;;27.35;42.80;101641.09;5030161;28;45473;-78
2022/05/17 09:43:06;;;;;;;;;9.33;8.33;;;;;27.35;42.62;101632.06;5028111;28;45595;-78
2022/05/17 09:45:45;;;;;;;;;7.67;7.67;;;;;27.39;43.14;101633.44;5031829;28;45422;-79
2022/05/17 09:48:12;;;;;;;;;8.67;8.67;;;;;27.41;43.04;101639.53;5033515;28;45589;-79
2022/05/17 09:53:46;;;;;;;;;8.00;8.00;;;;;27.45;42.55;101626.41;5026779;28;46769;-79
2022/05/17 09:56:12;;;;;;;;;8.67;7.67;;;;;27.43;42.85;101625.75;5028027;28;46022;-79
2022/05/17 09:58:40;;;;;;;;;8.00;8.00;;;;;27.43;42.73;101623.84;5027984;28;45451;-78
2022/05/17 10:01:11;;;;;;;;;9.33;7.33;;;;;27.46;42.67;101628.13;5033025;28;45414;-78
2022/05/17 10:03:40;;;;;;;;;8.33;8.00;;;;;27.47;42.59;101629.84;5031193;28;46424;-79
2022/05/17 10:06:13;;;;;;;;;7.33;7.33;;;;;27.48;42.03;101623.34;5029540;28;47059;-78
2022/05/17 10:09:05;;;;;;;;;9.67;6.67;;;;;27.51;42.17;101616.69;5030572;28;45470;-79
2022/05/17 10:11:42;;;;;;;;;4.00;4.00;;;;;27.52;41.99;101618.38;5029107;28;46074;-79
2022/05/17 10:14:28;;;;;;;;;5.00;5.00;;;;;27.53;42.17;101614.63;5033062;28;45396;-79
2022/05/17 10:17:02;;;;;;;;;3.67;3.67;;;;;27.52;42.08;101621.97;5024903;28;47177;-77
2022/05/17 10:19:55;;;;;;;;;6.00;6.00;;;;;27.53;41.88;101620.94;5029665;28;45446;-77
2022/05/17 10:22:44;;;;;;;;;5.00;5.00;;;;;27.53;41.95;101620.94;5027277;28;45507;-78
2022/05/17 10:25:24;;;;;;;;;5.00;5.00;;;;;27.48;42.46;101607.84;5028773;28;45785;-79
2022/05/17 10:27:54;;;;;;;;;4.33;4.33;;;;;27.49;41.75;101609.56;5030104;28;45440;-81
2022/05/17 10:30:31;;;;;;;;;8.00;8.00;;;;;27.50;42.47;101604.94;5032029;28;45464;-79
2022/05/17 10:33:14;;;;;;;;;4.00;4.00;;;;;27.51;42.13;101597.63;5032398;28;45633;-82
